Time;durP1;ratioP1;P1;durP2;ratioP2;P2;SDS_P1;SDS_P2;PMS_P1;PMS_P2;Temp;Humidity;BMP_temperature;BMP_pressure;BME280_temperature;BME280_humidity;BME280_pressure;Samples;Min_cycle;Max_cycle;Signal;HPM_P1;HPM_P2
2023/02/06 00:01:21;;;;;;;12.70;7.18;;;;;;;;;;5009114;28;20060;-74
2023/02/06 00:03:47;;;;;;;11.13;6.32;;;;;;;;;;5020134;28;20026;-74
2023/02/06 00:06:13;;;;;;;11.60;6.47;;;;;;;;;;5022090;28;20109;-73
2023/02/06 00:08:39;;;;;;;13.88;6.65;;;;;;;;;;5016784;28;20090;-74
2023/02/06 00:11:06;;;;;;;16.70;7.03;;;;;;;;;;5012405;28;20025;-74
2023/02/06 00:13:33;;;;;;;17.27;6.40;;;;;;;;;;5020678;28;20394;-74
2023/02/06 00:15:59;;;;;;;12.95;6.35;;;;;;;;;;5016916;28;20037;-74
2023/02/06 00:18:25;;;;;;;11.63;6.38;;;;;;;;;;5018431;28;20033;-73
2023/02/06 00:20:51;;;;;;;12.63;6.53;;;;;;;;;;5014848;28;20052;-74
2023/02/06 00:23:17;;;;;;;13.32;6.25;;;;;;;;;;5015416;28;20564;-74
2023/02/06 00:25:43;;;;;;;13.90;7.10;;;;;;;;;;5017085;28;20048;-74
2023/02/06 00:28:09;;;;;;;12.52;6.32;;;;;;;;;;5015461;28;20036;-74
2023/02/06 00:30:35;;;;;;;12.00;6.70;;;;;;;;;;5014331;28;20029;-74
2023/02/06 00:33:01;;;;;;;13.88;6.65;;;;;;;;;;5017155;28;20091;-74
2023/02/06 00:35:27;;;;;;;11.82;6.90;;;;;;;;;;5014475;28;20108;-74
2023/02/06 00:37:53;;;;;;;12.45;6.20;;;;;;;;;;5006710;28;20136;-74
2023/02/06 00:40:19;;;;;;;14.07;6.13;;;;;;;;;;5014999;28;20033;-74
2023/02/06 00:42:45;;;;;;;11.00;5.78;;;;;;;;;;5015898;28;20539;-74
2023/02/06 00:45:11;;;;;;;13.27;7.07;;;;;;;;;;5015646;28;20026;-74
2023/02/06 00:47:37;;;;;;;16.77;6.80;;;;;;;;;;5017750;28;20079;-73
2023/02/06 00:50:03;;;;;;;13.95;5.82;;;;;;;;;;5017947;28;20733;-73
2023/02/06 00:52:29;;;;;;;13.52;6.35;;;;;;;;;;5012578;28;20135;-74
2023/02/06 00:54:55;;;;;;;13.05;7.00;;;;;;;;;;5020333;28;20498;-73
2023/02/06 00:57:21;;;;;;;12.70;6.30;;;;;;;;;;5010767;28;20029;-74
2023/02/06 00:59:47;;;;;;;11.23;6.50;;;;;;;;;;5014852;28;20025;-74
2023/02/06 01:02:13;;;;;;;14.95;6.40;;;;;;;;;;5013678;28;20499;-73
2023/02/06 01:04:39;;;;;;;14.20;6.38;;;;;;;;;;5013764;28;20029;-73
2023/02/06 01:07:05;;;;;;;14.27;6.72;;;;;;;;;;5015548;28;20083;-74
2023/02/06 01:09:31;;;;;;;13.60;6.60;;;;;;;;;;5016291;28;20026;-74
2023/02/06 01:11:56;;;;;;;12.18;6.40;;;;;;;;;;5019894;28;20038;-74
2023/02/06 01:14:22;;;;;;;12.68;6.07;;;;;;;;;;5011043;28;20118;-73
2023/02/06 01:16:48;;;;;;;11.70;6.32;;;;;;;;;;5018045;28;20481;-74
2023/02/06 01:19:14;;;;;;;11.63;6.40;;;;;;;;;;5010555;28;20025;-74
2023/02/06 01:21:40;;;;;;;15.65;6.20;;;;;;;;;;5016335;28;20034;-74
2023/02/06 01:24:06;;;;;;;10.80;6.25;;;;;;;;;;5020839;28;20112;-73
2023/02/06 01:26:32;;;;;;;11.95;6.70;;;;;;;;;;5014734;28;20018;-74
2023/02/06 01:28:58;;;;;;;14.10;5.65;;;;;;;;;;5016587;28;20029;-74
2023/02/06 01:31:26;;;;;;;9.80;6.22;;;;;;;;;;5018125;28;20044;-74
2023/02/06 01:33:52;;;;;;;13.88;6.22;;;;;;;;;;5020121;28;20040;-74
2023/02/06 01:36:18;;;;;;;10.07;5.72;;;;;;;;;;5010108;28;20062;-74
2023/02/06 01:38:44;;;;;;;12.85;6.50;;;;;;;;;;5007783;28;20058;-73
2023/02/06 01:41:11;;;;;;;12.65;6.28;;;;;;;;;;5015423;28;20026;-74
2023/02/06 01:43:39;;;;;;;9.88;5.32;;;;;;;;;;5010285;28;20043;-73
2023/02/06 01:46:05;;;;;;;9.30;5.85;;;;;;;;;;5009550;28;20046;-74
2023/02/06 01:48:45;;;;;;;11.85;6.25;;;;;;;;;;5016476;28;20496;-74
2023/02/06 01:51:14;;;;;;;12.55;6.15;;;;;;;;;;5012550;28;20056;-72
2023/02/06 01:53:41;;;;;;;10.60;5.90;;;;;;;;;;5015822;28;20121;-72
2023/02/06 01:56:08;;;;;;;12.90;5.97;;;;;;;;;;5018758;28;20079;-73
2023/02/06 01:58:36;;;;;;;10.98;5.50;;;;;;;;;;5011687;28;20033;-73
2023/02/06 02:01:03;;;;;;;11.63;6.13;;;;;;;;;;5021261;28;20049;-73
2023/02/06 02:03:30;;;;;;;13.85;6.60;;;;;;;;;;5014373;28;20029;-73
2023/02/06 02:05:59;;;;;;;10.95;5.90;;;;;;;;;;5017612;28;20108;-72
2023/02/06 02:08:30;;;;;;;11.45;6.15;;;;;;;;;;5009661;28;20018;-72
2023/02/06 02:10:56;;;;;;;10.90;5.70;;;;;;;;;;5020622;28;20025;-72
2023/02/06 02:13:22;;;;;;;12.55;6.30;;;;;;;;;;5021501;28;20359;-72
2023/02/06 02:15:59;;;;;;;11.38;5.80;;;;;;;;;;5024129;28;20037;-72
2023/02/06 02:18:35;;;;;;;13.43;5.53;;;;;;;;;;5015474;28;20048;-74
2023/02/06 02:21:19;;;;;;;12.20;5.88;;;;;;;;;;5019222;28;20029;-72
2023/02/06 02:23:47;;;;;;;7.93;5.20;;;;;;;;;;5017618;28;20500;-73
2023/02/06 02:26:23;;;;;;;9.07;5.40;;;;;;;;;;5016330;28;20461;-72
2023/02/06 02:28:52;;;;;;;8.80;5.03;;;;;;;;;;5008299;28;20026;-72
2023/02/06 02:31:40;;;;;;;8.13;4.70;;;;;;;;;;5024646;28;20079;-72
2023/02/06 02:34:15;;;;;;;12.77;5.15;;;;;;;;;;5018945;28;20033;-73
2023/02/06 02:36:44;;;;;;;8.43;4.97;;;;;;;;;;5019717;28;20052;-73
2023/02/06 02:39:22;;;;;;;11.88;5.63;;;;;;;;;;5011566;28;20030;-73
2023/02/06 02:42:21;;;;;;;12.30;5.22;;;;;;;;;;5016239;28;20029;-73
2023/02/06 02:44:55;;;;;;;8.07;4.38;;;;;;;;;;4962281;28;20042;-73
2023/02/06 02:47:24;;;;;;;10.38;5.28;;;;;;;;;;5019356;28;20497;-74
2023/02/06 02:49:50;;;;;;;10.82;5.47;;;;;;;;;;5019031;28;20474;-73
2023/02/06 02:52:16;;;;;;;10.20;5.30;;;;;;;;;;5021819;28;20029;-73
2023/02/06 02:54:42;;;;;;;8.15;4.55;;;;;;;;;;5019287;28;20040;-72
2023/02/06 02:57:13;;;;;;;8.82;4.88;;;;;;;;;;5030237;28;20041;-72
2023/02/06 02:59:43;;;;;;;7.72;4.57;;;;;;;;;;5011318;28;20114;-72
2023/02/06 03:02:18;;;;;;;9.95;5.22;;;;;;;;;;5019744;28;20406;-72
2023/02/06 03:04:50;;;;;;;7.57;4.10;;;;;;;;;;5019346;28;20029;-73
2023/02/06 03:07:26;;;;;;;8.50;4.88;;;;;;;;;;5019613;28;20078;-73
2023/02/06 03:09:55;;;;;;;7.80;4.40;;;;;;;;;;5019229;28;20029;-73
2023/02/06 03:12:23;;;;;;;10.70;5.05;;;;;;;;;;5016512;28;20398;-73
2023/02/06 03:14:59;;;;;;;8.05;4.15;;;;;;;;;;5022460;28;20029;-72
2023/02/06 03:17:32;;;;;;;6.35;4.38;;;;;;;;;;5015189;28;20029;-73
2023/02/06 03:19:59;;;;;;;7.88;3.72;;;;;;;;;;5010959;28;20036;-73
2023/02/06 03:22:27;;;;;;;7.00;3.92;;;;;;;;;;5015813;28;20029;-73
2023/02/06 03:24:55;;;;;;;8.45;4.05;;;;;;;;;;5011199;28;20068;-73
2023/02/06 03:27:22;;;;;;;7.68;4.20;;;;;;;;;;5014055;28;20590;-73
2023/02/06 03:29:50;;;;;;;7.53;3.88;;;;;;;;;;5016207;28;20083;-72
2023/02/06 03:32:19;;;;;;;7.13;3.80;;;;;;;;;;5014788;28;20021;-73
2023/02/06 03:34:50;;;;;;;7.38;3.83;;;;;;;;;;5018930;28;20029;-74
2023/02/06 03:37:41;;;;;;;7.20;3.88;;;;;;;;;;5019801;28;20039;-72
2023/02/06 03:40:08;;;;;;;6.83;3.77;;;;;;;;;;5015993;28;20036;-73
2023/02/06 03:42:35;;;;;;;9.20;3.85;;;;;;;;;;5013835;28;20287;-73
2023/02/06 03:45:05;;;;;;;7.68;3.92;;;;;;;;;;5015719;28;20918;-73
2023/02/06 03:47:32;;;;;;;5.32;3.60;;;;;;;;;;5019053;28;20025;-73
2023/02/06 03:49:59;;;;;;;6.78;3.55;;;;;;;;;;5016452;28;20030;-73
2023/02/06 03:52:27;;;;;;;5.75;3.80;;;;;;;;;;5013871;28;20013;-74
2023/02/06 03:54:56;;;;;;;4.95;3.33;;;;;;;;;;5020359;28;20025;-74
2023/02/06 03:57:23;;;;;;;9.23;4.45;;;;;;;;;;5016965;28;20057;-74
2023/02/06 03:59:50;;;;;;;7.90;3.53;;;;;;;;;;5011421;28;20034;-75
2023/02/06 04:02:16;;;;;;;7.90;4.28;;;;;;;;;;5012013;28;20446;-73
2023/02/06 04:04:44;;;;;;;7.20;3.33;;;;;;;;;;5019393;28;20021;-74
2023/02/06 04:07:17;;;;;;;6.47;3.17;;;;;;;;;;5015946;28;20025;-73
2023/02/06 04:09:43;;;;;;;6.60;3.08;;;;;;;;;;5016489;28;20039;-74
2023/02/06 04:12:09;;;;;;;6.82;3.35;;;;;;;;;;5017698;28;20029;-73
2023/02/06 04:14:35;;;;;;;4.68;2.92;;;;;;;;;;5021245;28;20075;-73
2023/02/06 04:17:02;;;;;;;6.90;2.85;;;;;;;;;;5014045;28;20033;-73
2023/02/06 04:19:27;;;;;;;4.30;2.80;;;;;;;;;;5015811;28;20701;-74
2023/02/06 04:21:53;;;;;;;4.68;2.90;;;;;;;;;;5009047;28;20026;-73
2023/02/06 04:24:19;;;;;;;6.55;2.90;;;;;;;;;;5015199;28;20037;-73
2023/02/06 04:26:45;;;;;;;5.53;3.13;;;;;;;;;;5015204;28;20389;-71
2023/02/06 04:29:11;;;;;;;8.30;3.33;;;;;;;;;;5013163;28;20021;-71
2023/02/06 04:31:37;;;;;;;4.72;2.92;;;;;;;;;;5014903;28;20033;-71
2023/02/06 04:34:03;;;;;;;5.28;2.90;;;;;;;;;;5012776;28;20025;-71
2023/02/06 04:36:29;;;;;;;4.70;2.83;;;;;;;;;;5017387;28;20026;-72
2023/02/06 04:38:55;;;;;;;5.70;3.15;;;;;;;;;;5018175;28;20512;-74
2023/02/06 04:41:21;;;;;;;4.05;2.75;;;;;;;;;;5019249;28;20029;-75
2023/02/06 04:43:47;;;;;;;5.65;2.67;;;;;;;;;;5016769;28;20033;-75
2023/02/06 04:46:13;;;;;;;3.92;2.78;;;;;;;;;;5018701;28;20087;-75
2023/02/06 04:48:39;;;;;;;3.72;2.40;;;;;;;;;;5017947;28;20053;-74
2023/02/06 04:51:05;;;;;;;6.43;3.05;;;;;;;;;;5017225;28;20025;-75
2023/02/06 04:53:31;;;;;;;6.25;2.83;;;;;;;;;;5014789;28;20486;-74
2023/02/06 04:56:01;;;;;;;4.22;2.70;;;;;;;;;;5012054;28;20547;-75
2023/02/06 04:58:27;;;;;;;4.53;2.55;;;;;;;;;;5025248;28;20413;-74
2023/02/06 05:00:53;;;;;;;5.43;2.70;;;;;;;;;;5018104;28;20033;-74
2023/02/06 05:03:19;;;;;;;2.92;2.25;;;;;;;;;;5011038;28;20045;-74
2023/02/06 05:05:45;;;;;;;4.88;2.50;;;;;;;;;;5020781;28;20041;-75
2023/02/06 05:08:11;;;;;;;4.22;2.45;;;;;;;;;;5021755;28;20029;-75
2023/02/06 05:10:37;;;;;;;4.63;2.70;;;;;;;;;;5017556;28;20673;-75
2023/02/06 05:13:02;;;;;;;4.20;2.60;;;;;;;;;;5017433;28;20433;-74
2023/02/06 05:15:28;;;;;;;6.72;3.05;;;;;;;;;;5010989;28;21800;-75
2023/02/06 05:17:54;;;;;;;3.17;2.45;;;;;;;;;;5015874;28;20417;-75
2023/02/06 05:20:20;;;;;;;4.28;2.40;;;;;;;;;;5016853;28;20032;-75
2023/02/06 05:22:46;;;;;;;4.70;2.28;;;;;;;;;;5017629;28;20025;-75
2023/02/06 05:25:12;;;;;;;5.78;2.40;;;;;;;;;;5017401;28;20025;-75
2023/02/06 05:27:38;;;;;;;3.83;2.67;;;;;;;;;;5015950;28;20057;-76
2023/02/06 05:30:04;;;;;;;4.72;2.80;;;;;;;;;;5016839;28;20506;-75
2023/02/06 05:32:31;;;;;;;3.10;2.08;;;;;;;;;;5018948;28;20040;-75
2023/02/06 05:34:57;;;;;;;3.72;2.40;;;;;;;;;;5009419;28;20041;-74
2023/02/06 05:37:23;;;;;;;3.67;2.15;;;;;;;;;;5013630;28;20029;-75
2023/02/06 05:39:49;;;;;;;4.95;2.22;;;;;;;;;;5015822;28;20025;-75
2023/02/06 05:42:15;;;;;;;5.05;2.38;;;;;;;;;;5019166;28;20093;-75
2023/02/06 05:44:41;;;;;;;3.70;2.30;;;;;;;;;;5016345;28;20045;-74
2023/02/06 05:47:07;;;;;;;3.58;2.28;;;;;;;;;;5020625;28;20037;-74
2023/02/06 05:49:33;;;;;;;3.13;2.20;;;;;;;;;;5014832;28;20091;-74
2023/02/06 05:51:59;;;;;;;3.13;2.10;;;;;;;;;;5021151;28;20033;-74
2023/02/06 05:54:25;;;;;;;4.32;2.30;;;;;;;;;;5018300;28;20025;-74
2023/02/06 05:56:51;;;;;;;4.38;2.35;;;;;;;;;;5019136;28;20036;-74
2023/02/06 05:59:17;;;;;;;4.72;2.00;;;;;;;;;;5016986;28;20029;-74
2023/02/06 06:01:42;;;;;;;3.67;2.33;;;;;;;;;;5019249;28;20064;-75
2023/02/06 06:04:08;;;;;;;5.43;2.53;;;;;;;;;;5016022;28;20459;-74
2023/02/06 06:06:34;;;;;;;4.80;2.28;;;;;;;;;;5020087;28;20446;-75
2023/02/06 06:09:00;;;;;;;5.03;2.13;;;;;;;;;;5023101;28;20037;-75
2023/02/06 06:11:29;;;;;;;2.95;2.13;;;;;;;;;;5020102;28;20434;-74
2023/02/06 06:13:55;;;;;;;3.15;1.90;;;;;;;;;;5004095;28;20060;-74
2023/02/06 06:16:21;;;;;;;4.20;2.13;;;;;;;;;;5022031;28;20420;-75
2023/02/06 06:18:47;;;;;;;3.60;1.95;;;;;;;;;;5025150;28;20033;-76
2023/02/06 06:21:14;;;;;;;3.30;2.10;;;;;;;;;;5020742;28;20026;-74
2023/02/06 06:23:39;;;;;;;4.03;2.08;;;;;;;;;;5018478;28;20079;-74
2023/02/06 06:26:06;;;;;;;5.45;2.13;;;;;;;;;;5014930;28;20163;-75
2023/02/06 06:28:34;;;;;;;4.15;2.33;;;;;;;;;;5022287;28;20021;-74
2023/02/06 06:31:01;;;;;;;2.88;1.65;;;;;;;;;;5021078;28;20029;-74
2023/02/06 06:33:27;;;;;;;4.38;1.90;;;;;;;;;;5012985;28;20046;-72
2023/02/06 06:35:53;;;;;;;6.15;2.33;;;;;;;;;;5018638;28;20037;-72
2023/02/06 06:38:19;;;;;;;3.22;1.98;;;;;;;;;;5021654;28;20474;-73
2023/02/06 06:40:45;;;;;;;3.00;2.08;;;;;;;;;;5017018;28;20030;-73
2023/02/06 06:43:11;;;;;;;3.17;2.10;;;;;;;;;;5021145;28;20044;-74
2023/02/06 06:45:37;;;;;;;4.43;1.92;;;;;;;;;;5010788;28;20041;-71
2023/02/06 06:48:03;;;;;;;2.33;1.67;;;;;;;;;;5021586;28;20040;-70
2023/02/06 06:50:29;;;;;;;4.90;2.20;;;;;;;;;;5019733;28;20043;-73
2023/02/06 06:52:55;;;;;;;3.00;1.80;;;;;;;;;;5018736;28;20025;-70
2023/02/06 06:55:23;;;;;;;4.93;2.17;;;;;;;;;;5018304;28;20513;-69
2023/02/06 06:57:49;;;;;;;2.97;1.90;;;;;;;;;;5019368;28;20512;-71
2023/02/06 07:00:16;;;;;;;2.30;1.92;;;;;;;;;;5016760;28;20183;-68
2023/02/06 07:02:42;;;;;;;3.10;1.67;;;;;;;;;;5021268;28;20037;-70
2023/02/06 07:05:08;;;;;;;3.60;1.90;;;;;;;;;;5016564;28;20038;-72
2023/02/06 07:07:34;;;;;;;4.35;2.10;;;;;;;;;;5020289;28;20084;-72
2023/02/06 07:10:00;;;;;;;3.15;1.95;;;;;;;;;;5016705;28;20209;-73
2023/02/06 07:12:27;;;;;;;3.28;1.40;;;;;;;;;;5024242;28;20029;-73
2023/02/06 07:14:53;;;;;;;2.38;1.77;;;;;;;;;;5024501;28;20561;-73
2023/02/06 07:17:21;;;;;;;2.70;1.42;;;;;;;;;;5016906;28;20037;-79
2023/02/06 07:19:50;;;;;;;3.53;1.58;;;;;;;;;;5014575;28;20032;-74
2023/02/06 07:22:16;;;;;;;2.70;1.80;;;;;;;;;;5020480;28;20106;-73
2023/02/06 07:24:42;;;;;;;2.28;1.75;;;;;;;;;;5014058;28;20033;-72
2023/02/06 07:27:08;;;;;;;2.30;1.48;;;;;;;;;;5017908;28;20029;-73
2023/02/06 07:29:34;;;;;;;4.13;1.83;;;;;;;;;;5015157;28;20056;-73
2023/02/06 07:32:00;;;;;;;4.18;2.03;;;;;;;;;;5018088;28;20029;-73
2023/02/06 07:34:26;;;;;;;4.22;2.00;;;;;;;;;;5016855;28;20126;-72
2023/02/06 07:36:52;;;;;;;1.95;1.40;;;;;;;;;;5015987;28;20433;-72
2023/02/06 07:39:18;;;;;;;2.65;1.80;;;;;;;;;;5015935;28;20025;-73
2023/02/06 07:41:45;;;;;;;3.65;1.77;;;;;;;;;;5018934;28;20033;-73
2023/02/06 07:44:11;;;;;;;2.17;1.20;;;;;;;;;;5020016;28;20034;-72
2023/02/06 07:46:51;;;;;;;1.83;1.40;;;;;;;;;;5023423;28;20261;-72
2023/02/06 07:49:17;;;;;;;2.75;1.83;;;;;;;;;;5016632;28;20026;-72
2023/02/06 07:51:44;;;;;;;2.80;1.20;;;;;;;;;;5029249;28;20032;-73
2023/02/06 07:54:10;;;;;;;2.33;1.55;;;;;;;;;;5015814;28;20587;-73
2023/02/06 07:56:36;;;;;;;3.40;2.05;;;;;;;;;;5017071;28;20033;-72
2023/02/06 07:59:03;;;;;;;3.25;1.60;;;;;;;;;;5021609;28;20032;-72
2023/02/06 08:01:29;;;;;;;2.85;1.42;;;;;;;;;;5019933;28;20054;-73
2023/02/06 08:03:55;;;;;;;2.22;1.50;;;;;;;;;;5021319;28;20087;-71
2023/02/06 08:06:21;;;;;;;3.88;1.90;;;;;;;;;;5013543;28;20018;-72
2023/02/06 08:08:48;;;;;;;1.83;1.50;;;;;;;;;;5011569;28;20428;-72
2023/02/06 08:11:15;;;;;;;3.58;1.48;;;;;;;;;;5012992;28;20152;-73
2023/02/06 08:13:42;;;;;;;1.83;1.50;;;;;;;;;;5016997;28;20041;-73
2023/02/06 08:16:11;;;;;;;2.83;1.40;;;;;;;;;;5018268;28;20036;-73
2023/02/06 08:18:37;;;;;;;3.08;1.80;;;;;;;;;;5019770;28;20141;-74
2023/02/06 08:21:04;;;;;;;2.20;1.40;;;;;;;;;;5003666;28;20033;-73
2023/02/06 08:23:30;;;;;;;2.10;1.50;;;;;;;;;;5019263;28;20040;-72
2023/02/06 08:26:03;;;;;;;2.53;1.75;;;;;;;;;;5015602;28;20120;-73
2023/02/06 08:28:31;;;;;;;1.65;1.35;;;;;;;;;;5009197;28;20049;-73
2023/02/06 08:30:56;;;;;;;1.80;1.70;;;;;;;;;;5018102;28;20036;-73
2023/02/06 08:33:22;;;;;;;1.58;1.33;;;;;;;;;;5023397;28;20044;-73
2023/02/06 08:35:52;;;;;;;2.17;1.30;;;;;;;;;;5008939;28;20033;-73
2023/02/06 08:38:18;;;;;;;5.55;1.80;;;;;;;;;;5020752;28;20362;-73
2023/02/06 08:40:44;;;;;;;2.25;1.50;;;;;;;;;;5018850;28;20028;-73
2023/02/06 08:43:10;;;;;;;2.72;1.65;;;;;;;;;;5014018;28;20037;-73
2023/02/06 08:45:36;;;;;;;2.42;1.65;;;;;;;;;;5018149;28;20247;-72
2023/02/06 08:48:08;;;;;;;1.52;1.30;;;;;;;;;;5019641;28;20025;-73
2023/02/06 08:50:34;;;;;;;2.95;1.88;;;;;;;;;;5014475;28;20026;-74
2023/02/06 08:53:01;;;;;;;1.85;1.30;;;;;;;;;;5009568;28;20037;-74
2023/02/06 08:55:30;;;;;;;2.70;1.58;;;;;;;;;;5011290;28;20827;-74
2023/02/06 08:57:59;;;;;;;8.07;1.73;;;;;;;;;;5011503;28;20034;-74
2023/02/06 09:00:25;;;;;;;4.88;1.90;;;;;;;;;;5013024;28;20147;-74
2023/02/06 09:02:52;;;;;;;4.03;2.50;;;;;;;;;;5026615;28;20090;-74
2023/02/06 09:05:18;;;;;;;3.25;2.58;;;;;;;;;;5024274;28;20048;-73
2023/02/06 09:07:44;;;;;;;6.80;2.70;;;;;;;;;;5034582;28;20078;-75
2023/02/06 09:10:10;;;;;;;5.18;2.22;;;;;;;;;;5030367;28;20029;-74
2023/02/06 09:12:36;;;;;;;4.50;2.17;;;;;;;;;;5031140;28;20043;-72
2023/02/06 09:15:02;;;;;;;5.65;2.22;;;;;;;;;;5027553;28;20101;-72
2023/02/06 09:17:30;;;;;;;3.80;2.20;;;;;;;;;;5025652;28;20037;-73
2023/02/06 09:19:56;;;;;;;4.68;1.80;;;;;;;;;;5019622;28;20177;-73
2023/02/06 09:22:22;;;;;;;5.13;1.95;;;;;;;;;;5017870;28;20033;-72
2023/02/06 09:24:48;;;;;;;3.40;2.10;;;;;;;;;;5032788;28;20163;-73
2023/02/06 09:27:14;;;;;;;3.47;2.15;;;;;;;;;;5020843;28;20036;-73
2023/02/06 09:29:40;;;;;;;2.90;1.70;;;;;;;;;;5020967;28;20482;-73
2023/02/06 09:32:06;;;;;;;3.75;2.13;;;;;;;;;;5023907;28;20090;-74
2023/02/06 09:34:32;;;;;;;3.30;1.67;;;;;;;;;;5023835;28;20038;-74
2023/02/06 09:37:01;;;;;;;3.78;1.98;;;;;;;;;;5031257;28;20044;-74
2023/02/06 09:39:27;;;;;;;4.22;2.08;;;;;;;;;;5020689;28;20033;-73
2023/02/06 09:41:54;;;;;;;1.83;1.52;;;;;;;;;;5030076;28;20032;-74
2023/02/06 09:44:26;;;;;;;3.90;2.10;;;;;;;;;;5026026;28;20025;-72
2023/02/06 09:46:54;;;;;;;5.22;1.88;;;;;;;;;;5026831;28;20039;-72
2023/02/06 09:49:24;;;;;;;4.20;1.95;;;;;;;;;;5031095;28;20153;-72
2023/02/06 09:52:09;;;;;;;4.57;1.77;;;;;;;;;;5026996;28;20092;-72
2023/02/06 09:54:50;;;;;;;2.55;1.58;;;;;;;;;;5018565;28;20079;-71
2023/02/06 09:57:20;;;;;;;2.75;1.75;;;;;;;;;;5020272;28;20548;-73
2023/02/06 09:59:49;;;;;;;3.40;1.95;;;;;;;;;;5022703;28;20168;-73
2023/02/06 10:02:15;;;;;;;5.20;2.13;;;;;;;;;;5016660;28;20263;-73
2023/02/06 10:05:05;;;;;;;2.22;1.50;;;;;;;;;;5019307;28;20267;-72
2023/02/06 10:07:54;;;;;;;3.00;1.77;;;;;;;;;;5018686;28;20555;-72
2023/02/06 10:10:24;;;;;;;5.72;1.80;;;;;;;;;;5014464;28;20037;-72
2023/02/06 10:12:58;;;;;;;3.75;1.42;;;;;;;;;;5014632;28;20061;-75
2023/02/06 10:15:33;;;;;;;3.97;1.80;;;;;;;;;;5013407;28;20029;-73
2023/02/06 10:18:04;;;;;;;2.35;1.60;;;;;;;;;;5015851;28;20119;-73
2023/02/06 10:20:35;;;;;;;2.53;1.50;;;;;;;;;;5015043;28;20026;-73
2023/02/06 10:23:25;;;;;;;2.72;1.63;;;;;;;;;;5019095;28;20128;-73
2023/02/06 10:26:03;;;;;;;5.72;1.92;;;;;;;;;;4975659;28;20048;-73
2023/02/06 10:28:29;;;;;;;2.95;1.80;;;;;;;;;;5037093;28;20036;-74
2023/02/06 10:31:14;;;;;;;2.70;1.77;;;;;;;;;;5026183;28;20044;-73
2023/02/06 10:34:15;;;;;;;4.30;1.80;;;;;;;;;;5030531;28;20109;-73
2023/02/06 10:36:47;;;;;;;2.05;1.42;;;;;;;;;;4930760;29;20040;-74
2023/02/06 10:39:19;;;;;;;4.28;1.75;;;;;;;;;;5005577;28;20045;-74
2023/02/06 10:42:04;;;;;;;2.65;1.45;;;;;;;;;;5027576;28;20033;-73
2023/02/06 10:44:34;;;;;;;3.47;1.50;;;;;;;;;;5030520;28;20047;-73
2023/02/06 10:47:00;;;;;;;3.20;1.73;;;;;;;;;;5030151;28;20044;-73
2023/02/06 10:49:38;;;;;;;4.13;1.73;;;;;;;;;;5029329;28;20128;-74
2023/02/06 10:52:17;;;;;;;3.38;1.80;;;;;;;;;;5017926;28;20432;-73
2023/02/06 10:54:49;;;;;;;3.58;1.77;;;;;;;;;;5023658;28;20044;-74
2023/02/06 10:57:20;;;;;;;3.85;1.73;;;;;;;;;;5023418;28;20037;-73
2023/02/06 10:59:50;;;;;;;4.38;1.85;;;;;;;;;;5027831;28;20033;-73
2023/02/06 11:02:22;;;;;;;3.03;1.67;;;;;;;;;;5027460;28;20045;-73
2023/02/06 11:05:08;;;;;;;2.40;1.60;;;;;;;;;;5028326;28;20557;-73
2023/02/06 11:07:42;;;;;;;2.30;1.58;;;;;;;;;;5020618;28;20030;-72
2023/02/06 11:10:12;;;;;;;3.58;1.83;;;;;;;;;;5017117;28;20018;-73
2023/02/06 11:12:40;;;;;;;4.50;1.98;;;;;;;;;;5026845;28;20440;-72
2023/02/06 11:15:31;;;;;;;2.88;1.60;;;;;;;;;;5029884;28;20029;-72
2023/02/06 11:17:59;;;;;;;3.72;1.38;;;;;;;;;;5017615;28;20418;-73
2023/02/06 11:20:28;;;;;;;3.13;1.70;;;;;;;;;;5016831;28;20105;-73
2023/02/06 11:22:54;;;;;;;2.40;1.50;;;;;;;;;;5028397;28;20033;-73
2023/02/06 11:25:28;;;;;;;2.63;1.77;;;;;;;;;;5029569;28;20238;-73
2023/02/06 11:27:54;;;;;;;3.47;1.67;;;;;;;;;;5031066;28;20021;-72
2023/02/06 11:30:23;;;;;;;4.97;1.98;;;;;;;;;;5035463;28;20037;-73
2023/02/06 11:32:49;;;;;;;2.67;1.60;;;;;;;;;;5021372;28;20028;-73
2023/02/06 11:35:30;;;;;;;3.78;1.77;;;;;;;;;;5025868;28;20109;-73
2023/02/06 11:38:05;;;;;;;3.25;1.55;;;;;;;;;;5029560;28;20172;-73
2023/02/06 11:40:31;;;;;;;4.43;1.90;;;;;;;;;;5019631;28;20566;-73
2023/02/06 11:43:09;;;;;;;2.33;1.45;;;;;;;;;;5009528;28;20033;-72
2023/02/06 11:45:35;;;;;;;2.63;1.63;;;;;;;;;;5019121;28;20022;-73
2023/02/06 11:48:01;;;;;;;3.83;1.90;;;;;;;;;;5022335;28;20030;-74
2023/02/06 11:50:30;;;;;;;5.82;2.00;;;;;;;;;;5014328;28;20022;-73
2023/02/06 11:53:09;;;;;;;5.53;2.10;;;;;;;;;;5022654;28;20390;-73
2023/02/06 11:55:36;;;;;;;2.78;1.70;;;;;;;;;;5027540;28;20030;-73
2023/02/06 11:58:14;;;;;;;3.22;1.88;;;;;;;;;;5028858;28;20304;-72
2023/02/06 12:00:41;;;;;;;2.45;1.75;;;;;;;;;;5028067;28;20060;-73
2023/02/06 12:03:26;;;;;;;3.05;1.42;;;;;;;;;;5028892;28;20036;-73
2023/02/06 12:05:53;;;;;;;2.30;1.73;;;;;;;;;;5028421;28;20069;-73
2023/02/06 12:08:21;;;;;;;2.92;1.50;;;;;;;;;;5026923;28;20034;-74
2023/02/06 12:10:52;;;;;;;2.13;1.50;;;;;;;;;;5014631;28;20030;-73
2023/02/06 12:13:18;;;;;;;;;;;;;;;;;;5023283;28;20036;-73
2023/02/06 12:15:46;;;;;;;2.97;1.67;;;;;;;;;;5023972;28;20004;-73
2023/02/06 12:18:17;;;;;;;2.70;1.70;;;;;;;;;;5023511;28;20030;-73
2023/02/06 12:21:00;;;;;;;6.20;1.80;;;;;;;;;;5022039;28;20095;-74
2023/02/06 12:23:58;;;;;;;3.53;1.73;;;;;;;;;;5026633;28;20478;-74
2023/02/06 12:26:27;;;;;;;3.65;1.73;;;;;;;;;;4980328;28;20038;-74
2023/02/06 12:28:59;;;;;;;2.85;1.90;;;;;;;;;;5026202;28;20026;-73
2023/02/06 12:31:25;;;;;;;2.90;1.83;;;;;;;;;;5020035;28;20087;-73
2023/02/06 12:33:54;;;;;;;3.00;1.88;;;;;;;;;;5026845;28;20033;-73
2023/02/06 12:36:21;;;;;;;3.85;1.73;;;;;;;;;;5026593;28;20090;-74
2023/02/06 12:38:50;;;;;;;3.22;1.80;;;;;;;;;;5028530;28;20055;-74
2023/02/06 12:41:28;;;;;;;5.90;1.80;;;;;;;;;;5025539;28;20128;-75
2023/02/06 12:44:16;;;;;;;4.15;2.05;;;;;;;;;;5028555;28;20029;-74
2023/02/06 12:46:43;;;;;;;3.30;2.00;;;;;;;;;;5013091;28;20433;-74
2023/02/06 12:49:18;;;;;;;2.72;1.67;;;;;;;;;;5021639;28;20035;-75
2023/02/06 12:51:49;;;;;;;3.53;2.05;;;;;;;;;;5028349;28;20056;-74
2023/02/06 12:54:19;;;;;;;3.75;2.17;;;;;;;;;;5028523;28;20106;-74
2023/02/06 12:56:56;;;;;;;2.05;1.60;;;;;;;;;;5028289;28;20033;-74
2023/02/06 12:59:33;;;;;;;2.88;1.77;;;;;;;;;;5015787;28;20068;-74
2023/02/06 13:02:14;;;;;;;4.13;1.88;;;;;;;;;;5024007;28;20121;-74
2023/02/06 13:04:40;;;;;;;1.90;1.70;;;;;;;;;;5026293;28;20028;-74
2023/02/06 13:07:08;;;;;;;3.25;1.83;;;;;;;;;;5027889;28;20033;-74
2023/02/06 13:09:59;;;;;;;3.28;1.50;;;;;;;;;;5026934;28;20436;-74
2023/02/06 13:12:26;;;;;;;2.95;1.55;;;;;;;;;;5021564;28;20044;-74
2023/02/06 13:14:54;;;;;;;5.53;2.10;;;;;;;;;;5028004;28;20037;-73
2023/02/06 13:17:21;;;;;;;3.25;1.90;;;;;;;;;;5027876;28;20025;-74
2023/02/06 13:19:47;;;;;;;4.18;1.83;;;;;;;;;;5018753;28;20116;-74
2023/02/06 13:22:15;;;;;;;2.33;1.55;;;;;;;;;;5023036;28;20037;-74
2023/02/06 13:24:42;;;;;;;4.70;2.33;;;;;;;;;;5027602;28;20830;-74
2023/02/06 13:27:08;;;;;;;5.18;2.30;;;;;;;;;;5019911;28;20058;-75
2023/02/06 13:29:36;;;;;;;4.18;2.08;;;;;;;;;;5017930;28;20037;-73
2023/02/06 13:32:11;;;;;;;4.13;1.73;;;;;;;;;;5018077;28;20028;-74
2023/02/06 13:34:37;;;;;;;2.70;1.50;;;;;;;;;;5027966;28;20022;-73
2023/02/06 13:37:33;;;;;;;5.63;2.10;;;;;;;;;;5025664;28;20044;-74
2023/02/06 13:40:19;;;;;;;3.28;1.90;;;;;;;;;;5006603;28;20041;-74
2023/02/06 13:43:04;;;;;;;3.88;1.88;;;;;;;;;;5027430;28;20486;-74
2023/02/06 13:45:36;;;;;;;4.45;2.25;;;;;;;;;;5027423;28;20470;-75
2023/02/06 13:48:20;;;;;;;2.42;1.55;;;;;;;;;;5023240;28;20546;-74
2023/02/06 13:50:58;;;;;;;2.90;2.20;;;;;;;;;;5026063;28;20075;-74
2023/02/06 13:53:30;;;;;;;3.47;2.03;;;;;;;;;;5025581;28;20037;-74
2023/02/06 13:55:56;;;;;;;3.85;2.03;;;;;;;;;;5026893;28;20025;-74
2023/02/06 13:58:35;;;;;;;2.20;1.80;;;;;;;;;;5019126;28;20037;-75
2023/02/06 14:01:02;;;;;;;3.90;2.25;;;;;;;;;;5025210;28;20115;-74
2023/02/06 14:03:37;;;;;;;3.92;2.25;;;;;;;;;;5027153;28;20029;-74
2023/02/06 14:06:21;;;;;;;3.72;2.05;;;;;;;;;;5020127;28;20026;-74
2023/02/06 14:08:59;;;;;;;5.68;2.00;;;;;;;;;;5031072;28;20021;-74
2023/02/06 14:11:31;;;;;;;2.33;1.50;;;;;;;;;;5028439;28;20025;-75
2023/02/06 14:14:03;;;;;;;5.18;1.77;;;;;;;;;;5027150;28;20040;-74
2023/02/06 14:16:36;;;;;;;3.00;1.55;;;;;;;;;;5031135;28;20362;-75
2023/02/06 14:19:11;;;;;;;3.38;1.90;;;;;;;;;;5030840;28;20025;-75
2023/02/06 14:22:01;;;;;;;3.15;1.67;;;;;;;;;;5015640;28;20386;-74
2023/02/06 14:24:39;;;;;;;5.43;1.95;;;;;;;;;;4974951;28;20139;-75
2023/02/06 14:27:31;;;;;;;2.05;1.70;;;;;;;;;;5025099;28;20678;-73
2023/02/06 14:30:06;;;;;;;4.00;1.95;;;;;;;;;;5049074;28;20032;-74
2023/02/06 14:32:40;;;;;;;3.78;1.95;;;;;;;;;;5030439;28;20060;-74
2023/02/06 14:35:26;;;;;;;2.42;1.75;;;;;;;;;;5030487;28;20174;-74
2023/02/06 14:38:10;;;;;;;3.17;1.77;;;;;;;;;;5030549;28;20120;-74
2023/02/06 14:40:40;;;;;;;3.03;1.70;;;;;;;;;;5030680;28;20029;-74
2023/02/06 14:43:07;;;;;;;2.42;1.77;;;;;;;;;;5015338;28;20033;-74
2023/02/06 14:45:34;;;;;;;2.90;1.55;;;;;;;;;;5026950;28;20060;-74
2023/02/06 14:48:01;;;;;;;3.03;1.88;;;;;;;;;;5024386;28;20409;-74
2023/02/06 14:50:30;;;;;;;2.53;1.67;;;;;;;;;;5026585;28;20044;-74
2023/02/06 14:53:02;;;;;;;3.30;1.83;;;;;;;;;;5028762;28;20032;-74
2023/02/06 14:55:29;;;;;;;3.28;1.85;;;;;;;;;;5019084;28;20088;-75